Aeroporto :
LOGIN :

Iscrizione | Disclaimer

   EN    FR    IT 

 










Sommario :    VFR   VFR Marginale   IFR   IFR Intensivo   IFR Molto Intensivo
Visibilità : 
Base nubi : 
>= 8 km
>= 3000ft
5 / 8 km
1000 / 3000 ft
1500m / 5 km
500 / 1000 ft
800 / 1500m
200 / 500 ft
< 800m
< 200 ft
Simboli :   Temporali  Nebbia  Neve Forte  Precipitazioni Forti  Vento > 20 kt
SIGMETs :   Varie  Temporali  Ghiacco  Turbolenza  Onda orograficha  Ceneri Vulcaniche






- Altitudine del aeroporto : 36 ft
- Codice IATA : LTQ


LFAT - Le Touquet

ULTIMO METAR :
  • 202030Z AUTO 30017G29KT 270V330 9999 FEW033 07/M00 Q1020

METARs OBSOLETI :
  • 202000Z AUTO 30016G26KT CAVOK 07/01 Q1019
  • 201930Z AUTO 30015G26KT 9999 FEW035 08/02 Q1018
  • 201900Z AUTO 29014G25KT 260V320 CAVOK 07/02 Q1017
  • 201830Z AUTO 30017G30KT 270V330 9999 FEW024 SCT030 BKN037 07/03 Q1016 NOSIG
  • 201800Z AUTO 29016G27KT 240V330 9999 SCT035 BKN100 08/03 Q1016 TEMPO 30020G45KT 3000 SHRA BKN015CB

TAF TAF LFAT
Valido dal 20 a 15 ore il 21 a 00 ore UTC


201400Z 2015/2024 22020G30KT 9999 OVC020
TEMPO 2015/2017 29030G47KT 2000 RA BKN008 OVC020TCU
FM201700 30020G35KT 9999 SCT020
TEMPO 2017/2019 30020G45KT 3000 SHRA BKN015CB
BECMG 2020/2022 30015G25KT
ATIS : +33 3 21 06 62 84



MetMap, La meteo Aeronautica in un colpo d'occhio ! - Copyright ORBIFLY Dicembre 2007 - Disclaimer

ORBIFLY MET'MAP TEAM :

Programmazione e sviluppo : Alexandra Zaïnal
Concezione : Baudouin d'Aumeries
Aiuto per la programmazione : Marc-Olivier Méhu
Supporto tecnico e logistico : Manuel Goepfert
Aiuto per la traduzione : Arnaldo La Scala

Contatto : metmap@orbifly.com




FONTI E CREDITI :

   NOAA